Time;durP1;ratioP1;P1;durP2;ratioP2;P2;SDS_P1;SDS_P2;PMS_P1;PMS_P2;Temp;Humidity;BMP_temperature;BMP_pressure;BME280_temperature;BME280_humidity;BME280_pressure;Samples;Min_cycle;Max_cycle;Signal;HPM_P1;HPM_P2
2020/12/08 00:00:54;;;;;;;;;;;;;;;21.31;27.58;97573.03;5080321;28;928;-75
2020/12/08 00:03:20;;;;;;;;;;;;;;;21.61;27.38;97567.25;5079900;28;1898;-76
2020/12/08 00:05:45;;;;;;;;;;;;;;;22.06;26.50;97564.03;5080718;28;963;-75
2020/12/08 00:08:13;;;;;;;;;;;;;;;22.41;25.84;97566.88;5080235;28;698;-75
2020/12/08 00:10:38;;;;;;;;;;;;;;;22.69;25.60;97563.00;5063108;28;635;-75
2020/12/08 00:13:04;;;;;;;;;;;;;;;22.49;25.45;97562.53;5080001;28;992;-76
2020/12/08 00:15:29;;;;;;;;;;;;;;;21.81;26.46;97571.38;5080022;28;864;-76
2020/12/08 00:17:54;;;;;;;;;;;;;;;21.48;27.04;97561.56;5080207;28;1030;-75
2020/12/08 00:20:32;;;;;;;;;;;;;;;21.51;27.43;97557.84;5080471;28;725;-76
2020/12/08 00:22:57;;;;;;;;;;;;;;;22.06;26.54;97552.72;5080013;28;1963;-76
2020/12/08 00:25:23;;;;;;;;;;;;;;;22.56;25.82;97573.59;5080353;28;586;-75
2020/12/08 00:27:48;;;;;;;;;;;;;;;22.65;25.37;97573.69;5079891;28;988;-76
2020/12/08 00:30:15;;;;;;;;;;;;;;;22.83;25.47;97570.16;5079956;28;899;-75
2020/12/08 00:32:40;;;;;;;;;;;;;;;22.36;25.49;97566.22;5080051;28;904;-75
2020/12/08 00:35:09;;;;;;;;;;;;;;;21.83;26.28;97563.22;5080089;28;686;-75
2020/12/08 00:37:34;;;;;;;;;;;;;;;21.51;26.74;97558.63;5080218;28;706;-76
2020/12/08 00:40:00;;;;;;;;;;;;;;;21.49;27.14;97571.66;5079796;28;957;-75
2020/12/08 00:42:25;;;;;;;;;;;;;;;21.99;26.56;97559.41;5079717;28;1963;-76
2020/12/08 00:44:51;;;;;;;;;;;;;;;22.29;26.11;97568.53;5062896;28;1159;-75
2020/12/08 00:47:16;;;;;;;;;;;;;;;22.50;25.66;97569.78;5080137;28;1016;-75
2020/12/08 00:49:42;;;;;;;;;;;;;;;22.75;25.45;97568.84;5079251;28;1150;-75
2020/12/08 00:52:09;;;;;;;;;;;;;;;22.41;25.57;97561.22;5080094;28;653;-76
2020/12/08 00:54:37;;;;;;;;;;;;;;;21.47;26.65;97557.16;5062628;28;1138;-76
2020/12/08 00:57:08;;;;;;;;;;;;;;;21.42;26.81;97561.38;5062723;28;1119;-76
2020/12/08 00:59:35;;;;;;;;;;;;;;;21.51;27.14;97541.66;5062551;28;1287;-75
2020/12/08 01:02:01;;;;;;;;;;;;;;;22.01;26.37;97539.91;5064355;28;1906;-75
2020/12/08 01:04:28;;;;;;;;;;;;;;;22.32;26.03;97542.88;5083769;28;662;-75
2020/12/08 01:06:54;;;;;;;;;;;;;;;22.55;25.51;97538.00;5066860;28;1157;-75
2020/12/08 01:09:20;;;;;;;;;;;;;;;22.64;25.40;97543.75;5066003;28;1273;-75
2020/12/08 01:11:45;;;;;;;;;;;;;;;22.70;25.42;97536.22;5066318;28;1119;-76
2020/12/08 01:14:17;;;;;;;;;;;;;;;22.61;25.32;97536.16;5066207;28;1190;-76
2020/12/08 01:16:43;;;;;;;;;;;;;;;22.18;25.69;97542.63;5066402;28;1348;-76
2020/12/08 01:19:08;;;;;;;;;;;;;;;21.63;26.55;97528.72;5066303;28;1099;-75
2020/12/08 01:21:34;;;;;;;;;;;;;;;21.69;26.59;97543.88;5083670;28;646;-75
2020/12/08 01:23:59;;;;;;;;;;;;;;;21.81;26.73;97534.56;5083122;28;1898;-75
2020/12/08 01:26:25;;;;;;;;;;;;;;;22.15;26.20;97527.31;5065796;28;957;-76
2020/12/08 01:28:52;;;;;;;;;;;;;;;22.54;25.54;97519.41;5065721;28;846;-76
2020/12/08 01:31:28;;;;;;;;;;;;;;;22.62;25.42;97515.81;5049549;28;1289;-75
2020/12/08 01:33:54;;;;;;;;;;;;;;;22.23;25.49;97511.66;5065935;28;1123;-76
2020/12/08 01:36:19;;;;;;;;;;;;;;;21.78;26.23;97515.66;5083090;28;1018;-75
2020/12/08 01:38:47;;;;;;;;;;;;;;;21.06;27.32;97513.59;5065717;28;1299;-76
2020/12/08 01:41:13;;;;;;;;;;;;;;;21.76;27.05;97517.34;5065994;28;1289;-76
2020/12/08 01:43:46;;;;;;;;;;;;;;;22.20;26.22;97506.88;5065385;28;1898;-75
2020/12/08 01:46:13;;;;;;;;;;;;;;;22.39;25.88;97521.22;5065949;28;1223;-76
2020/12/08 01:48:38;;;;;;;;;;;;;;;22.61;25.36;97514.25;5065580;28;1281;-75
2020/12/08 01:51:04;;;;;;;;;;;;;;;22.36;25.46;97498.19;5049184;28;1307;-75
2020/12/08 01:53:29;;;;;;;;;;;;;;;21.63;26.69;97506.06;5065329;28;1214;-76
2020/12/08 01:55:55;;;;;;;;;;;;;;;21.67;26.19;97509.56;5065765;28;990;-75
2020/12/08 01:58:21;;;;;;;;;;;;;;;21.37;26.83;97501.72;5065222;28;1198;-75
2020/12/08 02:00:50;;;;;;;;;;;;;;;22.08;26.25;97499.22;5065900;28;1166;-75
2020/12/08 02:03:16;;;;;;;;;;;;;;;22.33;25.86;97492.66;5048220;28;1902;-76
2020/12/08 02:05:43;;;;;;;;;;;;;;;22.74;25.31;97502.00;5065214;28;1432;-76
2020/12/08 02:08:09;;;;;;;;;;;;;;;22.54;25.31;97505.25;5064977;28;1190;-76
2020/12/08 02:10:38;;;;;;;;;;;;;;;21.79;26.04;97494.56;5049632;28;1047;-75
2020/12/08 02:13:10;;;;;;;;;;;;;;;21.29;26.48;97489.78;5064289;28;1179;-76
2020/12/08 02:15:39;;;;;;;;;;;;;;;21.50;26.78;97488.31;5065697;28;1059;-76
2020/12/08 02:18:05;;;;;;;;;;;;;;;21.94;26.52;97496.91;5064982;28;1365;-76
2020/12/08 02:20:33;;;;;;;;;;;;;;;22.51;25.41;97486.31;5064863;28;1254;-75
2020/12/08 02:23:00;;;;;;;;;;;;;;;22.78;25.16;97472.25;5082459;28;1902;-75
2020/12/08 02:25:28;;;;;;;;;;;;;;;22.78;25.02;97474.31;5065135;28;1219;-75
2020/12/08 02:28:03;;;;;;;;;;;;;;;22.28;25.41;97479.88;5082516;28;786;-75
2020/12/08 02:30:29;;;;;;;;;;;;;;;21.69;26.39;97467.41;5081828;28;1225;-75
2020/12/08 02:32:54;;;;;;;;;;;;;;;21.61;26.50;97466.09;5081828;28;878;-76
2020/12/08 02:35:21;;;;;;;;;;;;;;;21.57;27.19;97465.44;5065122;28;1190;-76
2020/12/08 02:37:47;;;;;;;;;;;;;;;22.10;25.98;97462.72;5048323;28;1297;-75
2020/12/08 02:40:13;;;;;;;;;;;;;;;22.52;25.38;97456.69;5082074;28;658;-75
2020/12/08 02:42:44;;;;;;;;;;;;;;;22.62;25.43;97446.97;5064387;28;1965;-76
2020/12/08 02:45:10;;;;;;;;;;;;;;;22.61;25.43;97439.72;5064140;28;906;-75
2020/12/08 02:47:36;;;;;;;;;;;;;;;22.01;26.03;97445.63;5047840;28;1287;-76
2020/12/08 02:50:03;;;;;;;;;;;;;;;21.24;27.25;97451.56;5081566;28;821;-74
2020/12/08 02:52:33;;;;;;;;;;;;;;;21.64;26.30;97453.84;5048533;28;1213;-75
2020/12/08 02:55:00;;;;;;;;;;;;;;;21.56;26.86;97452.53;5064615;28;1214;-75
2020/12/08 02:57:26;;;;;;;;;;;;;;;22.09;26.00;97444.91;5064231;28;1319;-75
2020/12/08 02:59:52;;;;;;;;;;;;;;;22.42;25.82;97449.41;5064022;28;1341;-75
2020/12/08 03:02:23;;;;;;;;;;;;;;;22.51;25.50;97446.63;5064365;28;1902;-75
2020/12/08 03:04:50;;;;;;;;;;;;;;;22.58;25.32;97452.00;5064194;28;1285;-75
2020/12/08 03:07:18;;;;;;;;;;;;;;;22.39;25.16;97456.00;5064631;28;1278;-75
2020/12/08 03:09:46;;;;;;;;;;;;;;;21.69;26.58;97450.44;5064311;28;1319;-76
2020/12/08 03:12:11;;;;;;;;;;;;;;;21.51;26.45;97450.28;5047528;28;1160;-75
2020/12/08 03:14:39;;;;;;;;;;;;;;;21.58;26.88;97456.47;5047430;28;1258;-75
2020/12/08 03:17:08;;;;;;;;;;;;;;;22.00;26.07;97449.72;5064260;28;1288;-75
2020/12/08 03:19:34;;;;;;;;;;;;;;;22.57;25.35;97461.75;5064320;28;1120;-76
2020/12/08 03:22:00;;;;;;;;;;;;;;;22.71;25.11;97455.53;5064113;28;1902;-76
2020/12/08 03:24:38;;;;;;;;;;;;;;;22.57;25.09;97467.44;5063660;28;1199;-75
2020/12/08 03:27:06;;;;;;;;;;;;;;;22.05;25.72;97454.81;5047532;28;1255;-76
2020/12/08 03:29:31;;;;;;;;;;;;;;;21.63;26.08;97455.09;5080550;28;847;-75
2020/12/08 03:32:01;;;;;;;;;;;;;;;21.59;26.35;97454.44;5064056;28;1230;-76
2020/12/08 03:34:26;;;;;;;;;;;;;;;21.89;26.48;97457.84;5081001;28;676;-76
2020/12/08 03:36:52;;;;;;;;;;;;;;;22.17;25.88;97444.69;5063870;28;1309;-75
2020/12/08 03:39:17;;;;;;;;;;;;;;;22.47;25.38;97440.28;5063601;28;1199;-75
2020/12/08 03:41:43;;;;;;;;;;;;;;;22.74;24.67;97448.94;5063350;28;1299;-76
2020/12/08 03:44:10;;;;;;;;;;;;;;;22.02;25.90;97438.72;5062874;28;1902;-75
2020/12/08 03:46:35;;;;;;;;;;;;;;;21.69;26.02;97456.09;5080866;28;880;-75
2020/12/08 03:49:01;;;;;;;;;;;;;;;21.48;26.28;97459.69;5080577;28;1140;-75
2020/12/08 03:51:28;;;;;;;;;;;;;;;21.74;26.56;97458.34;5063888;28;1180;-76
2020/12/08 03:53:58;;;;;;;;;;;;;;;22.22;25.89;97458.25;5063567;28;1050;-76
2020/12/08 03:56:28;;;;;;;;;;;;;;;22.40;25.51;97458.38;5063340;28;1289;-75
2020/12/08 03:59:01;;;;;;;;;;;;;;;22.69;25.15;97452.38;5062864;28;1103;-74
2020/12/08 04:01:26;;;;;;;;;;;;;;;21.98;25.42;97447.38;5063202;28;1331;-73
2020/12/08 04:03:53;;;;;;;;;;;;;;;21.81;25.91;97452.44;5063177;28;1913;-75
2020/12/08 04:06:19;;;;;;;;;;;;;;;21.28;26.41;97460.72;5063557;28;1151;-74
2020/12/08 04:08:44;;;;;;;;;;;;;;;21.82;26.41;97454.00;5062592;28;1183;-75
2020/12/08 04:11:10;;;;;;;;;;;;;;;22.39;25.19;97456.00;5062743;28;1389;-75
2020/12/08 04:13:37;;;;;;;;;;;;;;;22.61;24.81;97457.53;5062702;28;1223;-76
2020/12/08 04:16:03;;;;;;;;;;;;;;;22.75;24.78;97456.19;5081043;28;637;-75
2020/12/08 04:18:29;;;;;;;;;;;;;;;22.81;24.64;97456.38;5062881;28;1151;-75
2020/12/08 04:20:54;;;;;;;;;;;;;;;21.94;25.58;97448.75;5080089;28;646;-76
2020/12/08 04:23:23;;;;;;;;;;;;;;;21.50;26.11;97449.50;5053593;28;1882;-74
2020/12/08 04:25:49;;;;;;;;;;;;;;;21.43;26.40;97448.94;5072229;28;1310;-76
2020/12/08 04:28:18;;;;;;;;;;;;;;;21.90;26.32;97445.25;5095176;28;1230;-73
2020/12/08 04:30:48;;;;;;;;;;;;;;;22.27;25.33;97449.94;5080382;28;1126;-76
2020/12/08 04:33:14;;;;;;;;;;;;;;;22.52;25.15;97428.34;5073033;28;1294;-75
2020/12/08 04:35:42;;;;;;;;;;;;;;;22.66;24.80;97436.28;5098152;28;1141;-76
2020/12/08 04:38:11;;;;;;;;;;;;;;;22.23;25.44;97446.47;5099522;28;848;-75
2020/12/08 04:40:37;;;;;;;;;;;;;;;21.82;25.70;97441.91;5099551;28;1070;-76
2020/12/08 04:43:03;;;;;;;;;;;;;;;21.67;26.16;97443.66;5100026;28;1901;-75
2020/12/08 04:45:28;;;;;;;;;;;;;;;22.17;25.73;97451.13;5100438;28;697;-75
2020/12/08 04:47:53;;;;;;;;;;;;;;;22.45;25.07;97448.47;5100063;28;1147;-75
2020/12/08 04:50:19;;;;;;;;;;;;;;;22.72;24.72;97465.63;5082755;28;630;-74
2020/12/08 04:52:45;;;;;;;;;;;;;;;22.41;25.10;97459.16;5099822;28;1044;-74
2020/12/08 04:55:10;;;;;;;;;;;;;;;21.65;26.15;97463.91;5082290;28;1271;-74
2020/12/08 04:57:38;;;;;;;;;;;;;;;21.23;26.79;97460.50;5082847;28;1445;-74
2020/12/08 05:00:07;;;;;;;;;;;;;;;21.92;26.04;97459.75;5099914;28;733;-75
2020/12/08 05:02:33;;;;;;;;;;;;;;;22.30;25.48;97466.03;5100083;28;1914;-74
2020/12/08 05:04:58;;;;;;;;;;;;;;;22.50;25.21;97465.69;5100047;28;681;-75
2020/12/08 05:07:30;;;;;;;;;;;;;;;22.74;24.83;97465.97;5100104;28;614;-75
2020/12/08 05:09:55;;;;;;;;;;;;;;;22.48;24.92;97464.53;5099669;28;701;-73
2020/12/08 05:12:24;;;;;;;;;;;;;;;21.21;26.21;97463.00;5099773;28;850;-74
2020/12/08 05:14:49;;;;;;;;;;;;;;;21.33;26.58;97454.50;5099504;28;864;-74
2020/12/08 05:17:21;;;;;;;;;;;;;;;21.57;26.79;97454.09;5099636;28;932;-73
2020/12/08 05:19:47;;;;;;;;;;;;;;;21.88;26.15;97457.03;5087688;22;1726;-75
2020/12/08 05:22:13;;;;;;;;;;;;;;;22.56;25.32;97454.53;5039138;28;1898;-75
2020/12/08 05:24:38;;;;;;;;;;;;;;;22.65;25.29;97460.25;5039076;28;1025;-75
2020/12/08 05:27:05;;;;;;;;;;;;;;;21.79;26.01;97454.91;5039170;28;1021;-76
2020/12/08 05:29:30;;;;;;;;;;;;;;;21.74;26.36;97458.34;5039255;28;1273;-75
2020/12/08 05:31:56;;;;;;;;;;;;;;;21.51;26.77;97451.06;5039732;28;598;-75
2020/12/08 05:34:25;;;;;;;;;;;;;;;21.63;27.23;97452.28;5039357;28;658;-74
2020/12/08 05:36:52;;;;;;;;;;;;;;;22.29;26.17;97453.13;5021830;28;963;-75
2020/12/08 05:39:18;;;;;;;;;;;;;;;22.53;25.61;97444.09;5022033;28;954;-75
2020/12/08 05:41:43;;;;;;;;;;;;;;;22.59;25.52;97453.59;5039692;28;950;-76
2020/12/08 05:44:09;;;;;;;;;;;;;;;22.63;25.42;97445.72;5039572;28;1902;-76
2020/12/08 05:46:39;;;;;;;;;;;;;;;22.56;24.99;97448.84;5039725;28;643;-76
2020/12/08 05:49:04;;;;;;;;;;;;;;;21.95;25.88;97450.31;5040826;28;748;-76
2020/12/08 05:51:30;;;;;;;;;;;;;;;21.41;26.57;97451.44;5042869;28;1040;-75
2020/12/08 05:53:56;;;;;;;;;;;;;;;21.46;26.83;97453.69;5042575;28;807;-76
2020/12/08 05:56:21;;;;;;;;;;;;;;;21.95;26.34;97462.44;5043209;28;984;-75
2020/12/08 05:58:53;;;;;;;;;;;;;;;22.31;25.72;97455.47;5042569;28;643;-75
2020/12/08 06:01:19;;;;;;;;;;;;;;;22.54;25.38;97451.38;5042741;28;677;-76
2020/12/08 06:03:52;;;;;;;;;;;;;;;22.77;24.73;97461.38;5043007;28;1902;-76
2020/12/08 06:06:18;;;;;;;;;;;;;;;22.55;24.91;97458.63;5025404;28;1164;-76
2020/12/08 06:08:43;;;;;;;;;;;;;;;22.03;25.73;97454.47;5042180;28;888;-75
2020/12/08 06:11:09;;;;;;;;;;;;;;;21.29;26.58;97465.13;5043011;28;869;-76
2020/12/08 06:13:35;;;;;;;;;;;;;;;22.12;25.81;97471.56;5042533;28;618;-76
2020/12/08 06:16:01;;;;;;;;;;;;;;;22.21;25.31;97451.78;5043019;28;571;-76
2020/12/08 06:18:30;;;;;;;;;;;;;;;22.49;25.28;97457.66;5024712;28;939;-75
2020/12/08 06:20:56;;;;;;;;;;;;;;;22.58;24.92;97463.34;5025034;28;1134;-76
2020/12/08 06:23:21;;;;;;;;;;;;;;;22.58;24.75;97464.13;5042148;28;1910;-76
2020/12/08 06:25:46;;;;;;;;;;;;;;;21.82;25.73;97471.00;5042618;28;653;-75
2020/12/08 06:28:12;;;;;;;;;;;;;;;21.52;26.04;97457.53;5042774;23;1529;-74
2020/12/08 06:30:38;;;;;;;;;;;;;;;21.51;27.11;97461.59;5021989;28;1086;-76
2020/12/08 06:33:04;;;;;;;;;;;;;;;22.52;25.67;97459.53;5022148;28;818;-76
2020/12/08 06:35:32;;;;;;;;;;;;;;;22.55;25.42;97455.78;5022373;28;669;-76
2020/12/08 06:37:58;;;;;;;;;;;;;;;22.59;25.15;97465.72;5022313;28;641;-75
2020/12/08 06:40:23;;;;;;;;;;;;;;;22.68;25.00;97467.81;5005248;28;1412;-76
2020/12/08 06:42:49;;;;;;;;;;;;;;;22.55;24.82;97469.97;5021903;28;1973;-75
2020/12/08 06:45:15;;;;;;;;;;;;;;;21.87;25.88;97471.69;5004887;28;965;-75
2020/12/08 06:47:40;;;;;;;;;;;;;;;21.78;25.68;97464.66;5022211;28;970;-75
2020/12/08 06:50:06;;;;;;;;;;;;;;;21.91;26.27;97473.09;5021936;28;602;-75
2020/12/08 06:52:32;;;;;;;;;;;;;;;22.15;26.02;97459.31;5022491;28;638;-75
2020/12/08 06:54:58;;;;;;;;;;;;;;;22.55;24.92;97464.28;5022226;28;648;-76
2020/12/08 06:57:24;;;;;;;;;;;;;;;22.71;24.80;97466.88;5022103;28;646;-75
2020/12/08 06:59:49;;;;;;;;;;;;;;;22.58;24.76;97464.13;5021091;28;904;-76
2020/12/08 07:02:15;;;;;;;;;;;;;;;22.02;25.67;97472.72;5021841;28;1902;-76
2020/12/08 07:04:40;;;;;;;;;;;;;;;21.42;26.31;97459.47;5021638;28;834;-75
2020/12/08 07:07:06;;;;;;;;;;;;;;;21.37;26.38;97457.22;5005053;28;635;-76
2020/12/08 07:09:34;;;;;;;;;;;;;;;21.74;26.17;97463.22;5021970;28;726;-76
2020/12/08 07:12:00;;;;;;;;;;;;;;;22.17;25.31;97462.47;5021758;28;604;-75
2020/12/08 07:14:27;;;;;;;;;;;;;;;22.48;25.01;97458.88;5021564;28;658;-76
2020/12/08 07:16:53;;;;;;;;;;;;;;;22.81;24.41;97448.66;5021698;28;686;-75
2020/12/08 07:19:18;;;;;;;;;;;;;;;22.61;24.67;97456.75;5003964;28;1043;-76
2020/12/08 07:21:43;;;;;;;;;;;;;;;22.70;24.52;97456.81;5021543;28;848;-76
2020/12/08 07:24:09;;;;;;;;;;;;;;;22.72;24.31;97456.31;5004288;28;1914;-75
2020/12/08 07:26:34;;;;;;;;;;;;;;;22.34;24.67;97449.69;5021611;28;847;-75
2020/12/08 07:29:00;;;;;;;;;;;;;;;21.90;25.51;97450.91;5021148;28;1221;-76
2020/12/08 07:31:26;;;;;;;;;;;;;;;21.52;26.13;97447.00;5021649;28;631;-76
2020/12/08 07:33:52;;;;;;;;;;;;;;;21.67;26.12;97455.78;5027670;28;1076;-75
2020/12/08 07:36:21;;;;;;;;;;;;;;;21.97;25.54;97459.16;5029900;28;1233;-75
2020/12/08 07:38:50;;;;;;;;;;;;;;;22.44;24.96;97455.41;5030057;28;1150;-76
2020/12/08 07:41:22;;;;;;;;;;;;;;;22.50;24.60;97448.66;5028686;28;1293;-75
2020/12/08 07:43:48;;;;;;;;;;;;;;;22.63;24.16;97465.56;5029668;28;1902;-74
2020/12/08 07:46:21;;;;;;;;;;;;;;;21.83;25.68;97478.25;5027829;28;1257;-75
2020/12/08 07:48:47;;;;;;;;;;;;;;;21.59;25.65;97468.59;5028670;28;1174;-76
2020/12/08 07:51:12;;;;;;;;;;;;;;;21.68;25.73;97465.84;5028489;28;1166;-75
2020/12/08 07:53:37;;;;;;;;;;;;;;;22.20;25.17;97472.88;5025666;28;978;-75
2020/12/08 07:56:03;;;;;;;;;;;;;;;22.28;24.80;97464.91;5030487;28;1183;-75
2020/12/08 07:58:41;;;;;;;;;;;;;;;22.72;24.09;97462.00;5029611;28;1245;-76
2020/12/08 08:01:07;;;;;;;;;;;;;;;22.66;24.30;97458.19;5028990;28;1124;-77
2020/12/08 08:03:32;;;;;;;;;;;;;;;22.77;24.30;97465.00;5035858;28;1906;-76
2020/12/08 08:05:58;;;;;;;;;;;;;;;22.59;24.09;97470.63;5041081;28;973;-76
2020/12/08 08:08:24;;;;;;;;;;;;;;;21.73;25.58;97478.63;5040428;28;928;-76
2020/12/08 08:10:49;;;;;;;;;;;;;;;21.42;26.20;97475.66;5040417;28;697;-76
2020/12/08 08:13:20;;;;;;;;;;;;;;;21.87;25.55;97478.13;5040105;28;619;-75
2020/12/08 08:15:45;;;;;;;;;;;;;;;22.30;24.91;97476.56;5040696;28;642;-76
2020/12/08 08:18:11;;;;;;;;;;;;;;;22.40;24.77;97481.03;5040001;28;902;-75
2020/12/08 08:20:36;;;;;;;;;;;;;;;22.55;24.52;97479.25;5040381;28;899;-77
2020/12/08 08:23:02;;;;;;;;;;;;;;;22.75;24.21;97489.44;5040192;28;1963;-76
2020/12/08 08:25:27;;;;;;;;;;;;;;;22.75;24.26;97478.09;5040314;28;826;-76
2020/12/08 08:27:53;;;;;;;;;;;;;;;22.21;25.00;97482.19;5040334;28;974;-76
2020/12/08 08:30:18;;;;;;;;;;;;;;;21.85;25.41;97478.56;5040365;28;614;-76
2020/12/08 08:32:44;;;;;;;;;;;;;;;21.65;25.60;97480.13;5040242;28;678;-75
2020/12/08 08:35:09;;;;;;;;;;;;;;;21.82;25.54;97476.66;5039416;28;690;-76
2020/12/08 08:37:35;;;;;;;;;;;;;;;22.28;24.99;97485.53;5040044;28;854;-75
2020/12/08 08:40:00;;;;;;;;;;;;;;;22.47;24.47;97486.44;5039794;28;939;-75
2020/12/08 08:42:26;;;;;;;;;;;;;;;22.52;24.55;97476.53;5040120;28;1953;-75
2020/12/08 08:44:51;;;;;;;;;;;;;;;22.56;24.42;97482.88;5039955;28;678;-76
2020/12/08 08:47:17;;;;;;;;;;;;;;;22.64;24.14;97484.19;5040560;28;628;-76
2020/12/08 08:49:42;;;;;;;;;;;;;;;22.35;24.58;97488.09;5039915;28;666;-75
2020/12/08 08:52:10;;;;;;;;;;;;;;;21.90;25.04;97480.03;5039952;28;988;-76
2020/12/08 08:54:35;;;;;;;;;;;;;;;21.54;25.47;97477.66;5039643;28;911;-75
2020/12/08 08:57:00;;;;;;;;;;;;;;;21.81;25.33;97474.28;5022806;28;949;-75
2020/12/08 08:59:26;;;;;;;;;;;;;;;22.27;24.85;97483.16;5039988;28;630;-75
2020/12/08 09:01:51;;;;;;;;;;;;;;;22.59;24.06;97484.78;5040112;28;669;-76
2020/12/08 09:04:17;;;;;;;;;;;;;;;22.69;24.23;97474.25;5039547;28;1906;-74
2020/12/08 09:06:48;;;;;;;;;;;;;;;22.65;24.29;97471.59;5039895;28;946;-75
2020/12/08 09:09:14;;;;;;;;;;;;;;;22.54;23.88;97462.72;5039904;28;1023;-76
2020/12/08 09:11:39;;;;;;;;;;;;;;;21.96;25.22;97474.56;5040172;28;650;-76
2020/12/08 09:14:06;;;;;;;;;;;;;;;21.71;25.44;97473.44;5039790;28;614;-75
2020/12/08 09:16:32;;;;;;;;;;;;;;;21.62;25.42;97466.91;5040004;28;638;-75
2020/12/08 09:18:57;;;;;;;;;;;;;;;21.88;25.44;97474.03;5039344;28;806;-75
2020/12/08 09:21:23;;;;;;;;;;;;;;;22.29;24.86;97475.00;5039747;28;825;-75
2020/12/08 09:23:48;;;;;;;;;;;;;;;22.57;24.42;97478.78;5042134;28;1898;-75
2020/12/08 09:26:14;;;;;;;;;;;;;;;22.63;24.21;97476.91;5043898;28;632;-76
2020/12/08 09:28:39;;;;;;;;;;;;;;;22.61;24.17;97473.75;5042917;28;1098;-76
2020/12/08 09:31:05;;;;;;;;;;;;;;;22.86;23.58;97473.56;5043555;28;630;-76
2020/12/08 09:33:30;;;;;;;;;;;;;;;22.02;25.14;97482.03;5042642;28;1046;-75
2020/12/08 09:35:56;;;;;;;;;;;;;;;21.53;25.74;97476.09;5043518;28;987;-75
2020/12/08 09:38:21;;;;;;;;;;;;;;;21.84;25.30;97485.50;5042395;28;1042;-76
2020/12/08 09:40:47;;;;;;;;;;;;;;;22.30;24.44;97488.69;5043431;28;894;-75
2020/12/08 09:43:12;;;;;;;;;;;;;;;22.67;24.17;97483.25;5042960;28;1977;-75
2020/12/08 09:45:38;;;;;;;;;;;;;;;22.82;23.73;97474.97;5043060;28;913;-76
2020/12/08 09:48:04;;;;;;;;;;;;;;;22.98;23.68;97473.94;5042694;28;873;-75
2020/12/08 09:50:29;;;;;;;;;;;;;;;22.77;23.53;97481.25;5042917;28;858;-75
2020/12/08 09:52:55;;;;;;;;;;;;;;;22.81;23.62;97477.00;5042411;28;685;-76
2020/12/08 09:55:20;;;;;;;;;;;;;;;22.23;24.43;97483.31;5042965;28;677;-75
2020/12/08 09:57:46;;;;;;;;;;;;;;;21.70;25.07;97480.31;5042994;28;654;-76
2020/12/08 10:00:11;;;;;;;;;;;;;;;21.43;25.87;97483.69;5042751;28;1009;-76
2020/12/08 10:02:37;;;;;;;;;;;;;;;22.02;24.76;97490.53;5042413;28;1894;-75
2020/12/08 10:05:02;;;;;;;;;;;;;;;22.46;24.35;97495.41;5042716;28;996;-76
2020/12/08 10:07:28;;;;;;;;;;;;;;;22.79;23.73;97492.91;5043169;28;635;-75
2020/12/08 10:09:53;;;;;;;;;;;;;;;22.78;23.50;97488.50;5042444;28;645;-75
2020/12/08 10:12:19;;;;;;;;;;;;;;;22.68;24.02;97486.88;5042975;28;830;-76
2020/12/08 10:14:44;;;;;;;;;;;;;;;22.79;23.83;97490.84;5024538;28;1171;-76
2020/12/08 10:17:16;;;;;;;;;;;;;;;21.97;24.72;97484.66;5042272;28;921;-76
2020/12/08 10:19:42;;;;;;;;;;;;;;;21.70;25.05;97491.66;5042398;28;897;-75
2020/12/08 10:22:07;;;;;;;;;;;;;;;21.42;25.64;97493.44;5042928;28;598;-75
2020/12/08 10:24:32;;;;;;;;;;;;;;;21.96;24.75;97502.88;5042357;28;1969;-75
2020/12/08 10:26:58;;;;;;;;;;;;;;;22.57;23.70;97507.13;5042543;28;642;-75
2020/12/08 10:29:24;;;;;;;;;;;;;;;22.73;23.68;97509.75;5041793;28;993;-76
2020/12/08 10:31:50;;;;;;;;;;;;;;;22.66;23.86;97497.91;5042134;28;885;-76
2020/12/08 10:34:15;;;;;;;;;;;;;;;22.66;23.84;97501.50;5041202;28;929;-75
2020/12/08 10:36:43;;;;;;;;;;;;;;;22.88;23.43;97505.13;5042433;28;666;-75
2020/12/08 10:39:08;;;;;;;;;;;;;;;22.60;23.59;97500.53;5042020;28;677;-75
2020/12/08 10:41:34;;;;;;;;;;;;;;;22.66;23.78;97493.00;5042037;28;646;-75
2020/12/08 10:43:59;;;;;;;;;;;;;;;22.79;23.36;97496.53;5041425;28;1967;-75
2020/12/08 10:46:25;;;;;;;;;;;;;;;23.08;23.16;97506.78;5041980;28;921;-75
2020/12/08 10:48:50;;;;;;;;;;;;;;;22.32;23.93;97508.06;5041697;28;929;-76
2020/12/08 10:51:22;;;;;;;;;;;;;;;21.83;24.90;97506.56;5042107;28;639;-75
2020/12/08 10:53:47;;;;;;;;;;;;;;;21.72;24.69;97500.50;5041803;28;658;-75
2020/12/08 10:56:17;;;;;;;;;;;;;;;21.97;24.46;97501.66;5041977;28;650;-75
2020/12/08 10:58:42;;;;;;;;;;;;;;;22.43;24.04;97502.00;5040580;28;899;-76
2020/12/08 11:01:07;;;;;;;;;;;;;;;22.69;23.46;97492.09;5041690;28;936;-76
2020/12/08 11:03:33;;;;;;;;;;;;;;;22.67;23.46;97500.25;5041440;28;1969;-76
2020/12/08 11:05:58;;;;;;;;;;;;;;;23.12;22.95;97490.41;5042026;28;756;-76
2020/12/08 11:08:24;;;;;;;;;;;;;;;22.58;23.49;97497.38;5041309;28;547;-75
2020/12/08 11:10:49;;;;;;;;;;;;;;;22.01;24.40;97499.47;5041818;28;654;-76
2020/12/08 11:13:15;;;;;;;;;;;;;;;21.44;25.20;97490.94;5040966;28;903;-75
2020/12/08 11:15:40;;;;;;;;;;;;;;;21.77;24.83;97497.06;5040419;28;1092;-75
2020/12/08 11:18:06;;;;;;;;;;;;;;;22.20;24.21;97495.56;5041462;28;839;-76
2020/12/08 11:20:31;;;;;;;;;;;;;;;22.64;23.51;97481.34;5041523;28;689;-76
2020/12/08 11:22:57;;;;;;;;;;;;;;;22.71;23.39;97486.72;5041462;28;1898;-76
2020/12/08 11:25:22;;;;;;;;;;;;;;;22.80;23.32;97489.63;5041225;28;624;-76
2020/12/08 11:27:47;;;;;;;;;;;;;;;22.79;23.23;97488.03;5040691;28;1369;-75
2020/12/08 11:30:13;;;;;;;;;;;;;;;22.87;23.21;97485.69;5040911;28;900;-76
2020/12/08 11:32:38;;;;;;;;;;;;;;;22.87;22.86;97486.50;5041131;28;1057;-75
2020/12/08 11:35:04;;;;;;;;;;;;;;;23.13;22.68;97483.47;5041023;28;586;-75
2020/12/08 11:37:30;;;;;;;;;;;;;;;22.11;24.07;97486.97;5041123;28;679;-76
2020/12/08 11:39:55;;;;;;;;;;;;;;;21.62;24.52;97500.88;5041216;28;643;-76
2020/12/08 11:42:20;;;;;;;;;;;;;;;21.51;24.98;97484.25;5040902;28;1898;-75
2020/12/08 11:44:46;;;;;;;;;;;;;;;22.07;23.93;97486.28;5040555;28;811;-76
2020/12/08 11:47:12;;;;;;;;;;;;;;;22.43;23.54;97482.94;5040798;28;934;-75
2020/12/08 11:49:38;;;;;;;;;;;;;;;22.74;23.20;97482.97;5040812;28;659;-75
2020/12/08 11:52:05;;;;;;;;;;;;;;;22.81;22.97;97484.75;5040846;28;639;-76
2020/12/08 11:54:31;;;;;;;;;;;;;;;22.91;22.96;97491.28;5040688;28;622;-76
2020/12/08 11:56:56;;;;;;;;;;;;;;;23.20;22.39;97493.72;5040518;28;872;-76
2020/12/08 11:59:22;;;;;;;;;;;;;;;22.99;22.79;97493.34;5040302;28;799;-76
2020/12/08 12:01:59;;;;;;;;;;;;;;;22.82;22.81;97498.44;5040448;28;894;-76
2020/12/08 12:04:25;;;;;;;;;;;;;;;22.92;22.93;97492.84;5040467;28;1898;-76
2020/12/08 12:06:50;;;;;;;;;;;;;;;22.65;23.14;97491.44;5040848;28;622;-76
2020/12/08 12:09:16;;;;;;;;;;;;;;;22.07;23.91;97503.28;5039966;28;1034;-76
2020/12/08 12:11:41;;;;;;;;;;;;;;;21.28;24.98;97505.19;5040320;28;968;-76
2020/12/08 12:14:07;;;;;;;;;;;;;;;22.22;23.95;97510.03;5040191;28;913;-75
2020/12/08 12:16:32;;;;;;;;;;;;;;;22.86;23.01;97501.94;5040587;28;964;-75
2020/12/08 12:18:58;;;;;;;;;;;;;;;22.67;23.16;97522.94;5040142;28;647;-76
2020/12/08 12:21:23;;;;;;;;;;;;;;;23.07;22.79;97511.66;5040493;28;701;-76
2020/12/08 12:23:48;;;;;;;;;;;;;;;22.40;23.52;97519.94;5039751;28;1981;-76
2020/12/08 12:26:14;;;;;;;;;;;;;;;21.56;24.65;97521.25;5040017;28;891;-76
2020/12/08 12:28:40;;;;;;;;;;;;;;;21.71;24.44;97524.41;5039351;28;1194;-75
2020/12/08 12:31:07;;;;;;;;;;;;;;;21.92;24.12;97519.25;5040635;28;697;-76
2020/12/08 12:33:33;;;;;;;;;;;;;;;22.14;24.11;97525.75;5039967;28;682;-75
2020/12/08 12:35:59;;;;;;;;;;;;;;;22.49;23.38;97534.97;5040014;28;886;-76
2020/12/08 12:38:24;;;;;;;;;;;;;;;22.80;22.87;97537.84;5039539;28;901;-75
2020/12/08 12:40:50;;;;;;;;;;;;;;;22.91;22.82;97542.34;5040620;28;971;-75
2020/12/08 12:43:15;;;;;;;;;;;;;;;22.30;23.82;97545.38;5039886;28;1898;-76
2020/12/08 12:45:41;;;;;;;;;;;;;;;21.52;24.96;97548.91;5040057;28;670;-76
2020/12/08 12:48:06;;;;;;;;;;;;;;;21.50;24.65;97554.22;5040139;28;618;-75
2020/12/08 12:50:32;;;;;;;;;;;;;;;22.03;24.07;97548.75;5040217;28;1106;-75
2020/12/08 12:52:57;;;;;;;;;;;;;;;22.26;23.82;97556.06;5039606;28;854;-76
2020/12/08 12:55:23;;;;;;;;;;;;;;;22.56;23.25;97550.91;5040190;28;843;-76
2020/12/08 12:57:48;;;;;;;;;;;;;;;22.74;23.34;97559.56;5041368;28;658;-76